nws-alerts: Checking more than four warning/county codes can delay the loading of your pages. You should use a cron job to get the data.
EllijayWeather Station Historical Data
Daily Summary for August 19, 2019 Units:  English    Metric   Both
Daily Weekly Monthly Yearly Custom
  High: Low: Average:
Temperature: 90.7 °F 67.6 °F 73.1 °F
Dew Point: 75.7 °F 66.4 °F 69.7 °F
Humidity: 97% 56% 90%
Wind Speed: 2.9mph 0mph 0mph
Wind Gust: 10mph - -
Wind- - SW
Pressure: 30.12 in 30.02 in -
Precipitation: 0.04 in    
Historical Graphs
 
 
Tabular Data for August 19, 2019
Time Temperature Dew Point Pressure Wind Wind Speed Wind Gust Humidity Rainfall Rate (Hourly) solar
00:00 73 °F 70.3 °F 30.02 in Calm     91% 0 in meteobridge W/m2
00:05 72.9 °F 70.2 °F 30.02 in Calm     91% 0 in meteobridge W/m2
00:10 72.9 °F 70.2 °F 30.02 in Calm     91% 0 in meteobridge W/m2
00:15 72.7 °F 70 °F 30.02 in Calm     91% 0 in meteobridge W/m2
00:20 72.7 °F 70.2 °F 30.02 in Calm     92% 0 in meteobridge W/m2
00:25 72.7 °F 70.2 °F 30.03 in Calm     92% 0 in meteobridge W/m2
00:30 72.5 °F 70 °F 30.03 in Calm     92% 0 in meteobridge W/m2
00:35 72.3 °F 69.6 °F 30.03 in Calm     91% 0 in meteobridge W/m2
00:40 72.3 °F 69.8 °F 30.03 in Calm     92% 0 in meteobridge W/m2
00:45 72.3 °F 69.8 °F 30.03 in Calm     92% 0 in meteobridge W/m2
00:50 72.3 °F 69.8 °F 30.02 in Calm     92% 0 in meteobridge W/m2
00:55 72.1 °F 69.6 °F 30.02 in Calm     92% 0 in meteobridge W/m2
01:00 72.1 °F 69.6 °F 30.02 in Calm     92% 0 in meteobridge W/m2
01:05 72.1 °F 69.6 °F 30.03 in Calm     92% 0 in meteobridge W/m2
01:10 72 °F 69.8 °F 30.03 in Calm     93% 0 in meteobridge W/m2
01:15 72 °F 69.8 °F 30.03 in Calm     93% 0 in meteobridge W/m2
01:20 72 °F 69.8 °F 30.02 in Calm     93% 0 in meteobridge W/m2
01:25 72 °F 69.8 °F 30.02 in Calm     93% 0 in meteobridge W/m2
01:30 71.8 °F 69.6 °F 30.02 in Calm     93% 0 in meteobridge W/m2
01:35 71.8 °F 69.3 °F 30.02 in Calm     92% 0 in meteobridge W/m2
01:40 71.6 °F 69.1 °F 30.02 in Calm     92% 0 in meteobridge W/m2
01:45 71.6 °F 69.4 °F 30.02 in Calm     93% 0 in meteobridge W/m2
01:50 71.4 °F 69.3 °F 30.02 in Calm     93% 0 in meteobridge W/m2
01:55 71.4 °F 69.3 °F 30.02 in Calm     93% 0 in meteobridge W/m2
02:00 71.2 °F 69.1 °F 30.02 in Calm     93% 0 in meteobridge W/m2
02:05 71.2 °F 69.1 °F 30.02 in Calm     93% 0 in meteobridge W/m2
02:10 71.1 °F 68.9 °F 30.02 in Calm     93% 0 in meteobridge W/m2
02:15 71.1 °F 68.9 °F 30.03 in Calm     93% 0 in meteobridge W/m2
02:20 70.9 °F 68.7 °F 30.03 in Calm     93% 0 in meteobridge W/m2
02:25 70.9 °F 69.1 °F 30.03 in Calm     94% 0 in meteobridge W/m2
02:30 70.9 °F 69.1 °F 30.02 in Calm     94% 0 in meteobridge W/m2
02:35 70.9 °F 69.1 °F 30.02 in Calm     94% 0 in meteobridge W/m2
02:40 70.9 °F 69.1 °F 30.02 in Calm     94% 0 in meteobridge W/m2
02:45 70.7 °F 68.9 °F 30.03 in Calm     94% 0 in meteobridge W/m2
02:50 70.5 °F 68.7 °F 30.03 in Calm     94% 0 in meteobridge W/m2
02:55 70.5 °F 68.7 °F 30.03 in Calm     94% 0 in meteobridge W/m2
03:00 70.3 °F 68.5 °F 30.02 in Calm     94% 0 in meteobridge W/m2
03:05 70.3 °F 68.5 °F 30.02 in Calm     94% 0 in meteobridge W/m2
03:10 70.2 °F 68.4 °F 30.03 in Calm     94% 0 in meteobridge W/m2
03:15 70.2 °F 68.4 °F 30.03 in Calm     94% 0 in meteobridge W/m2
03:20 70.2 °F 68.7 °F 30.03 in Calm     95% 0 in meteobridge W/m2
03:25 70.2 °F 68.7 °F 30.03 in Calm     95% 0 in meteobridge W/m2
03:30 70 °F 68.5 °F 30.02 in Calm     95% 0 in meteobridge W/m2
03:35 70 °F 68.5 °F 30.02 in Calm     95% 0 in meteobridge W/m2
03:40 70 °F 68.2 °F 30.02 in Calm     94% 0 in meteobridge W/m2
03:45 69.8 °F 68.4 °F 30.02 in Calm     95% 0 in meteobridge W/m2
03:50 69.6 °F 68.2 °F 30.02 in Calm     95% 0 in meteobridge W/m2
03:55 69.6 °F 67.8 °F 30.03 in Calm     94% 0 in meteobridge W/m2
04:00 69.4 °F 68 °F 30.02 in Calm     95% 0 in meteobridge W/m2
04:05 69.4 °F 68 °F 30.03 in Calm     95% 0 in meteobridge W/m2
04:10 69.3 °F 67.8 °F 30.03 in Calm     95% 0 in meteobridge W/m2
04:15 69.3 °F 67.8 °F 30.03 in Calm     95% 0 in meteobridge W/m2
04:20 69.1 °F 67.6 °F 30.02 in Calm     95% 0 in meteobridge W/m2
04:25 69.1 °F 67.6 °F 30.03 in Calm     95% 0 in meteobridge W/m2
04:30 69.1 °F 67.6 °F 30.03 in Calm     95% 0 in meteobridge W/m2
04:35 68.7 °F 67.3 °F 30.03 in Calm     95% 0 in meteobridge W/m2
04:40 68.7 °F 67.3 °F 30.03 in Calm     95% 0 in meteobridge W/m2
04:45 68.7 °F 67.3 °F 30.03 in Calm     95% 0 in meteobridge W/m2
04:50 68.7 °F 67.3 °F 30.03 in Calm     95% 0 in meteobridge W/m2
04:55 68.5 °F 67.1 °F 30.03 in Calm     95% 0 in meteobridge W/m2
05:00 68.5 °F 67.1 °F 30.03 in Calm     95% 0 in meteobridge W/m2
05:05 68.5 °F 67.3 °F 30.03 in Calm     96% 0 in meteobridge W/m2
05:10 68.4 °F 67.1 °F 30.04 in Calm     96% 0 in meteobridge W/m2
05:15 68.4 °F 67.1 °F 30.04 in Calm     96% 0 in meteobridge W/m2
05:20 68.4 °F 67.1 °F 30.04 in Calm     96% 0 in meteobridge W/m2
05:25 68.4 °F 67.1 °F 30.04 in Calm     96% 0 in meteobridge W/m2
05:30 68.4 °F 67.1 °F 30.04 in Calm     96% 0 in meteobridge W/m2
05:35 68.4 °F 67.1 °F 30.04 in Calm     96% 0 in meteobridge W/m2
05:40 68.2 °F 66.9 °F 30.04 in Calm     96% 0 in meteobridge W/m2
05:45 68.2 °F 66.9 °F 30.05 in Calm     96% 0 in meteobridge W/m2
05:50 68.4 °F 67.1 °F 30.04 in Calm     96% 0 in meteobridge W/m2
05:55 68.4 °F 67.1 °F 30.04 in Calm     96% 0 in meteobridge W/m2
06:00 68.4 °F 67.1 °F 30.05 in Calm     96% 0 in meteobridge W/m2
06:05 68.2 °F 66.9 °F 30.05 in Calm     96% 0 in meteobridge W/m2
06:10 68.4 °F 67.1 °F 30.05 in Calm     96% 0 in meteobridge W/m2
06:15 68.2 °F 66.9 °F 30.05 in Calm     96% 0 in meteobridge W/m2
06:20 68.2 °F 66.9 °F 30.05 in Calm     96% 0 in meteobridge W/m2
06:25 68.2 °F 66.9 °F 30.05 in Calm     96% 0 in meteobridge W/m2
06:30 68.2 °F 66.9 °F 30.06 in Calm     96% 0 in meteobridge W/m2
06:35 68 °F 66.7 °F 30.06 in Calm     96% 0 in meteobridge W/m2
06:40 68 °F 66.7 °F 30.06 in Calm     96% 0 in meteobridge W/m2
06:45 67.8 °F 66.6 °F 30.06 in Calm     96% 0 in meteobridge W/m2
06:50 67.8 °F 66.6 °F 30.06 in Calm     96% 0 in meteobridge W/m2
06:55 67.8 °F 66.6 °F 30.06 in Calm     96% 0 in meteobridge W/m2
07:00 67.8 °F 66.6 °F 30.06 in Calm     96% 0 in meteobridge W/m2
07:05 67.6 °F 66.4 °F 30.06 in Calm     96% 0 in meteobridge W/m2
07:10 67.6 °F 66.4 °F 30.06 in Calm     96% 0 in meteobridge W/m2
07:15 67.6 °F 66.7 °F 30.07 in Calm     97% 0 in meteobridge W/m2
07:20 67.6 °F 66.7 °F 30.07 in Calm     97% 0 in meteobridge W/m2
07:25 67.6 °F 66.7 °F 30.06 in Calm     97% 0 in meteobridge W/m2
07:30 67.6 °F 66.7 °F 30.07 in Calm     97% 0 in meteobridge W/m2
07:35 67.6 °F 66.7 °F 30.07 in Calm     97% 0 in meteobridge W/m2
07:40 67.8 °F 66.9 °F 30.07 in Calm     97% 0 in meteobridge W/m2
07:45 67.8 °F 66.9 °F 30.07 in Calm     97% 0 in meteobridge W/m2
07:50 68.2 °F 67.3 °F 30.07 in Calm     97% 0 in meteobridge W/m2
07:55 68.2 °F 67.3 °F 30.07 in Calm     97% 0 in meteobridge W/m2
08:00 68.4 °F 67.5 °F 30.07 in Calm     97% 0 in meteobridge W/m2
08:05 68.5 °F 67.6 °F 30.08 in Calm     97% 0 in meteobridge W/m2
08:10 68.9 °F 68 °F 30.08 in Calm     97% 0 in meteobridge W/m2
08:15 69.1 °F 68.2 °F 30.08 in Calm     97% 0 in meteobridge W/m2
08:20 69.3 °F 68.4 °F 30.08 in Calm     97% 0 in meteobridge W/m2
08:25 69.6 °F 68.7 °F 30.08 in Calm     97% 0 in meteobridge W/m2
08:30 69.8 °F 68.5 °F 30.08 in Calm     96% 0 in meteobridge W/m2
08:35 70 °F 68.7 °F 30.08 in Calm     96% 0 in meteobridge W/m2
08:40 70.2 °F 68.9 °F 30.08 in Calm     96% 0 in meteobridge W/m2
08:45 70.5 °F 69.3 °F 30.08 in Calm     96% 0 in meteobridge W/m2
08:50 70.7 °F 69.4 °F 30.08 in Calm     96% 0 in meteobridge W/m2
08:55 70.9 °F 69.6 °F 30.08 in Calm     96% 0 in meteobridge W/m2
09:00 71.2 °F 69.8 °F 30.08 in Calm     95% 0 in meteobridge W/m2
09:05 71.4 °F 70 °F 30.08 in Calm     95% 0 in meteobridge W/m2
09:10 71.8 °F 70.3 °F 30.08 in Calm     95% 0 in meteobridge W/m2
09:15 72 °F 70.5 °F 30.08 in Calm     95% 0 in meteobridge W/m2
09:20 72.1 °F 70.7 °F 30.08 in Calm     95% 0 in meteobridge W/m2
09:25 72.3 °F 70.5 °F 30.07 in Calm     94% 0 in meteobridge W/m2
09:30 72.7 °F 70.9 °F 30.07 in Calm     94% 0 in meteobridge W/m2
09:35 72.9 °F 71.1 °F 30.07 in Calm     94% 0 in meteobridge W/m2
09:40 73 °F 70.9 °F 30.07 in Calm     93% 0 in meteobridge W/m2
09:45 73.2 °F 71.1 °F 30.08 in Calm     93% 0 in meteobridge W/m2
09:50 73.6 °F 71.4 °F 30.08 in Calm     93% 0 in meteobridge W/m2
09:55 73.9 °F 71.8 °F 30.07 in Calm     93% 0 in meteobridge W/m2
10:00 74.5 °F 72.3 °F 30.08 in Calm     93% 0 in meteobridge W/m2
10:05 74.8 °F 72.7 °F 30.07 in Calm     93% 0 in meteobridge W/m2
10:10 75.2 °F 72.7 °F 30.07 in Calm     92% 0 in meteobridge W/m2
10:15 75.6 °F 73 °F 30.08 in Calm     92% 0 in meteobridge W/m2
10:20 75.9 °F 73 °F 30.08 in Calm     91% 0 in meteobridge W/m2
10:25 76.5 °F 73.6 °F 30.08 in Calm     91% 0 in meteobridge W/m2
10:30 76.6 °F 73.4 °F 30.08 in Calm     90% 0 in meteobridge W/m2
10:35 77.2 °F 73.8 °F 30.08 in Calm     89% 0 in meteobridge W/m2
10:40 77.4 °F 73.9 °F 30.08 in Calm     89% 0 in meteobridge W/m2
10:45 77.9 °F 74.5 °F 30.08 in Calm     89% 0 in meteobridge W/m2
10:50 78.4 °F 74.7 °F 30.08 in Calm     88% 0 in meteobridge W/m2
10:55 79 °F 75.4 °F 30.08 in Calm     89% 0 in meteobridge W/m2
11:00 79.3 °F 74.8 °F 30.08 in Calm     86% 0 in meteobridge W/m2
11:05 79.9 °F 75 °F 30.08 in Calm     85% 0 in meteobridge W/m2
11:10 80.2 °F 75 °F 30.07 in NNW 0.9 mph 1 mph 84% 0 in meteobridge W/m2
11:15 80.8 °F 74.8 °F 30.07 in Calm     82% 0 in meteobridge W/m2
11:20 81.3 °F 75.7 °F 30.07 in Calm     83% 0 in meteobridge W/m2
11:25 81.9 °F 75.7 °F 30.07 in NNW 0.9 mph 2 mph 82% 0 in meteobridge W/m2
11:30 82.4 °F 74.5 °F 30.07 in NNE 0.9 mph 2 mph 77% 0 in meteobridge W/m2
11:35 83.1 °F 74.8 °F 30.07 in NW 0.9 mph 1 mph 76% 0 in meteobridge W/m2
11:40 83.8 °F 74.7 °F 30.07 in Calm   1 mph 74% 0 in meteobridge W/m2
11:45 84.2 °F 74.7 °F 30.07 in Calm     73% 0 in meteobridge W/m2
11:50 84.7 °F 73.4 °F 30.07 in Calm     69% 0 in meteobridge W/m2
11:55 84.9 °F 73.6 °F 30.07 in Calm   1 mph 69% 0 in meteobridge W/m2
12:00 85.5 °F 73.2 °F 30.07 in WNW 0.9 mph 3 mph 67% 0 in meteobridge W/m2
12:05 85.8 °F 74.5 °F 30.07 in Calm   3 mph 69% 0 in meteobridge W/m2
12:10 86.2 °F 73.4 °F 30.07 in Calm     66% 0 in meteobridge W/m2
12:15 86.2 °F 73.4 °F 30.07 in WNW 2.9 mph 3 mph 66% 0 in meteobridge W/m2
12:20 86.4 °F 73.6 °F 30.07 in NNW 2.9 mph 3 mph 66% 0 in meteobridge W/m2
12:25 86.5 °F 73.4 °F 30.06 in Calm     65% 0 in meteobridge W/m2
12:30 87.1 °F 73.4 °F 30.06 in Calm   1 mph 64% 0 in meteobridge W/m2
12:35 87.3 °F 73 °F 30.06 in Calm   1 mph 63% 0 in meteobridge W/m2
12:40 87.4 °F 73.8 °F 30.06 in Calm     64% 0 in meteobridge W/m2
12:45 87.8 °F 74.1 °F 30.06 in Calm     64% 0 in meteobridge W/m2
12:50 88.2 °F 73.9 °F 30.06 in Calm     63% 0 in meteobridge W/m2
12:55 88.7 °F 73.6 °F 30.06 in Calm   3 mph 61% 0 in meteobridge W/m2
13:00 89.1 °F 73.4 °F 30.06 in Calm   1 mph 60% 0 in meteobridge W/m2
13:05 89.2 °F 73.9 °F 30.06 in Calm     61% 0 in meteobridge W/m2
13:10 89.8 °F 75 °F 30.06 in Calm     62% 0 in meteobridge W/m2
13:15 90 °F 73.2 °F 30.05 in Calm   3 mph 58% 0 in meteobridge W/m2
13:20 90.3 °F 73 °F 30.05 in Calm     57% 0 in meteobridge W/m2
13:25 90.7 °F 73.4 °F 30.05 in Calm   4 mph 57% 0 in meteobridge W/m2
13:30 90.3 °F 73 °F 30.06 in Calm     57% 0 in meteobridge W/m2
13:35 90 °F 72.1 °F 30.06 in Calm   1 mph 56% 0 in meteobridge W/m2
13:40 89.8 °F 73 °F 30.06 in NNE 2 mph 2 mph 58% 0 in meteobridge W/m2
13:45 89.4 °F 73.8 °F 30.06 in Calm   7 mph 60% 0 in meteobridge W/m2
13:50 87.3 °F 70.2 °F 30.06 in East 0.9 mph 10 mph 57% 0 in meteobridge W/m2
13:55 84.7 °F 70.7 °F 30.06 in Calm   1 mph 63% 0 in meteobridge W/m2
14:00 82.2 °F 70.5 °F 30.06 in Calm     68% 0.02 in meteobridge W/m2
14:05 80.1 °F 72.1 °F 30.05 in Calm     77% 0.03 in meteobridge W/m2
14:10 78.4 °F 71.4 °F 30.04 in Calm     79% 0.03 in meteobridge W/m2
14:15 77.2 °F 72.7 °F 30.03 in Calm   1 mph 86% 0.03 in meteobridge W/m2
14:20 76.3 °F 72.5 °F 30.03 in Calm     88% 0.03 in meteobridge W/m2
14:25 75.7 °F 72.3 °F 30.03 in Calm     89% 0.03 in meteobridge W/m2
14:30 75.6 °F 72.5 °F 30.04 in Calm   1 mph 90% 0.03 in meteobridge W/m2
14:35 75.2 °F 72.1 °F 30.05 in Calm     90% 0.03 in meteobridge W/m2
14:40 74.8 °F 72.3 °F 30.05 in Calm     92% 0.03 in meteobridge W/m2
14:45 74.5 °F 71.4 °F 30.06 in Calm     90% 0.03 in meteobridge W/m2
14:50 74.1 °F 71.2 °F 30.06 in Calm     91% 0.03 in meteobridge W/m2
14:55 73.9 °F 71.4 °F 30.05 in Calm     92% 0.03 in meteobridge W/m2
15:00 73.9 °F 71.8 °F 30.05 in Calm     93% 0.01 in meteobridge W/m2
15:05 73.9 °F 71.8 °F 30.05 in Calm     93% 0 in meteobridge W/m2
15:10 74.1 °F 72 °F 30.05 in Calm     93% 0 in meteobridge W/m2
15:15 73.9 °F 70.2 °F 30.05 in Calm   2 mph 88% 0 in meteobridge W/m2
15:20 73.8 °F 69.3 °F 30.05 in Calm   3 mph 86% 0.01 in meteobridge W/m2
15:25 73.6 °F 69.4 °F 30.05 in Calm     87% 0.01 in meteobridge W/m2
15:30 73.4 °F 70.5 °F 30.05 in Calm     91% 0.01 in meteobridge W/m2
15:35 72.9 °F 68.7 °F 30.05 in Calm     87% 0.01 in meteobridge W/m2
15:40 72.5 °F 68.7 °F 30.05 in Calm     88% 0.01 in meteobridge W/m2
15:45 72.3 °F 69.6 °F 30.05 in Calm     91% 0.01 in meteobridge W/m2
15:50 72.1 °F 69.4 °F 30.05 in Calm     91% 0.01 in meteobridge W/m2
15:55 72 °F 69.4 °F 30.05 in Calm     92% 0.01 in meteobridge W/m2
16:00 72 °F 69.8 °F 30.04 in Calm     93% 0.01 in meteobridge W/m2
16:05 71.8 °F 70 °F 30.05 in Calm     94% 0.01 in meteobridge W/m2
16:10 71.8 °F 70 °F 30.04 in Calm     94% 0.01 in meteobridge W/m2
16:15 72 °F 70.2 °F 30.04 in Calm     94% 0.01 in meteobridge W/m2
16:20 71.8 °F 70 °F 30.03 in Calm     94% 0 in meteobridge W/m2
16:25 72 °F 70.2 °F 30.05 in Calm     94% 0 in meteobridge W/m2
16:30 72 °F 70.2 °F 30.06 in Calm     94% 0 in meteobridge W/m2
16:35 72.1 °F 70.7 °F 30.06 in Calm     95% 0 in meteobridge W/m2
16:40 72.1 °F 70.7 °F 30.06 in Calm     95% 0 in meteobridge W/m2
16:45 72.3 °F 70.5 °F 30.06 in Calm     94% 0 in meteobridge W/m2
16:50 72.3 °F 70.5 °F 30.06 in Calm     94% 0 in meteobridge W/m2
16:55 72.5 °F 70.7 °F 30.05 in Calm     94% 0 in meteobridge W/m2
17:00 72.7 °F 70.5 °F 30.05 in Calm     93% 0 in meteobridge W/m2
17:05 72.9 °F 70.3 °F 30.04 in Calm     92% 0 in meteobridge W/m2
17:10 72.9 °F 69.8 °F 30.05 in Calm     90% 0 in meteobridge W/m2
17:15 73.2 °F 69.8 °F 30.05 in Calm     89% 0 in meteobridge W/m2
17:20 73.2 °F 68.7 °F 30.04 in Calm     86% 0 in meteobridge W/m2
17:25 73.4 °F 70 °F 30.04 in Calm     89% 0 in meteobridge W/m2
17:30 73.6 °F 70.2 °F 30.04 in Calm     89% 0 in meteobridge W/m2
17:35 73.6 °F 70.5 °F 30.03 in Calm     90% 0 in meteobridge W/m2
17:40 73.4 °F 70 °F 30.03 in Calm     89% 0 in meteobridge W/m2
17:45 73.4 °F 70.3 °F 30.03 in Calm     90% 0 in meteobridge W/m2
17:50 73.2 °F 69.1 °F 30.03 in Calm     87% 0 in meteobridge W/m2
17:55 73.2 °F 69.4 °F 30.04 in Calm     88% 0 in meteobridge W/m2
18:00 73.2 °F 69.8 °F 30.04 in Calm   1 mph 89% 0 in meteobridge W/m2
18:05 73.2 °F 70.5 °F 30.03 in Calm     91% 0 in meteobridge W/m2
18:10 73.2 °F 70.5 °F 30.03 in Calm     91% 0 in meteobridge W/m2
18:15 73.2 °F 70.2 °F 30.03 in Calm     90% 0 in meteobridge W/m2
18:20 73.2 °F 70.2 °F 30.03 in Calm     90% 0 in meteobridge W/m2
18:25 73.2 °F 70.2 °F 30.03 in Calm   1 mph 90% 0 in meteobridge W/m2
18:30 73 °F 69.6 °F 30.03 in Calm   1 mph 89% 0 in meteobridge W/m2
18:35 72.9 °F 69.4 °F 30.03 in Calm     89% 0 in meteobridge W/m2
18:40 72.9 °F 69.4 °F 30.03 in Calm     89% 0 in meteobridge W/m2
18:45 72.9 °F 69.4 °F 30.03 in Calm     89% 0 in meteobridge W/m2
18:50 72.9 °F 69.4 °F 30.03 in Calm     89% 0 in meteobridge W/m2
18:55 72.9 °F 69.4 °F 30.04 in Calm     89% 0 in meteobridge W/m2
19:00 72.9 °F 69.8 °F 30.04 in Calm     90% 0 in meteobridge W/m2
19:05 72.9 °F 70.2 °F 30.04 in Calm     91% 0 in meteobridge W/m2
19:10 72.9 °F 70.3 °F 30.04 in Calm     92% 0 in meteobridge W/m2
19:15 72.7 °F 69.3 °F 30.04 in Calm     89% 0 in meteobridge W/m2
19:20 72.7 °F 70 °F 30.04 in Calm     91% 0 in meteobridge W/m2
19:25 72.7 °F 70 °F 30.04 in Calm     91% 0 in meteobridge W/m2
19:30 72.5 °F 69.4 °F 30.04 in Calm     90% 0 in meteobridge W/m2
19:35 72.5 °F 69.4 °F 30.04 in Calm     90% 0 in meteobridge W/m2
19:40 72.3 °F 69.3 °F 30.04 in Calm     90% 0 in meteobridge W/m2
19:45 72.3 °F 69.6 °F 30.04 in Calm     91% 0 in meteobridge W/m2
19:50 72.1 °F 69.4 °F 30.05 in Calm     91% 0 in meteobridge W/m2
19:55 72.1 °F 69.4 °F 30.05 in Calm     91% 0 in meteobridge W/m2
20:00 72.1 °F 69.4 °F 30.06 in Calm     91% 0 in meteobridge W/m2
20:05 72.1 °F 69.6 °F 30.06 in Calm     92% 0 in meteobridge W/m2
20:10 72 °F 69.4 °F 30.05 in Calm     92% 0 in meteobridge W/m2
20:15 71.8 °F 69.1 °F 30.06 in Calm     91% 0 in meteobridge W/m2
20:20 71.6 °F 69.1 °F 30.06 in Calm     92% 0 in meteobridge W/m2
20:25 71.4 °F 68.9 °F 30.06 in Calm     92% 0 in meteobridge W/m2
20:30 71.2 °F 68.7 °F 30.06 in Calm     92% 0 in meteobridge W/m2
20:35 71.1 °F 68.5 °F 30.06 in Calm     92% 0 in meteobridge W/m2
20:40 70.9 °F 68.4 °F 30.06 in Calm     92% 0 in meteobridge W/m2
20:45 70.7 °F 68.5 °F 30.06 in Calm     93% 0 in meteobridge W/m2
20:50 70.5 °F 68.4 °F 30.06 in Calm     93% 0 in meteobridge W/m2
20:55 70.3 °F 68.2 °F 30.06 in Calm     93% 0 in meteobridge W/m2
21:00 70.2 °F 68 °F 30.06 in Calm     93% 0 in meteobridge W/m2
21:05 70.2 °F 68.4 °F 30.06 in Calm     94% 0 in meteobridge W/m2
21:10 70 °F 68.2 °F 30.07 in Calm     94% 0 in meteobridge W/m2
21:15 70 °F 68.2 °F 30.07 in Calm     94% 0 in meteobridge W/m2
21:20 69.8 °F 68 °F 30.07 in Calm   1 mph 94% 0 in meteobridge W/m2
21:25 69.6 °F 67.8 °F 30.08 in Calm     94% 0 in meteobridge W/m2
21:30 69.6 °F 68.2 °F 30.08 in Calm     95% 0 in meteobridge W/m2
21:35 69.4 °F 68 °F 30.09 in Calm     95% 0 in meteobridge W/m2
21:40 69.4 °F 68 °F 30.09 in Calm     95% 0 in meteobridge W/m2
21:45 69.4 °F 68 °F 30.09 in Calm     95% 0 in meteobridge W/m2
21:50 69.3 °F 67.8 °F 30.09 in Calm     95% 0 in meteobridge W/m2
21:55 69.1 °F 67.6 °F 30.09 in Calm     95% 0 in meteobridge W/m2
22:00 69.1 °F 67.6 °F 30.10 in Calm     95% 0 in meteobridge W/m2
22:05 68.9 °F 67.5 °F 30.11 in Calm     95% 0 in meteobridge W/m2
22:10 68.7 °F 67.5 °F 30.11 in Calm     96% 0 in meteobridge W/m2
22:15 68.7 °F 67.5 °F 30.11 in Calm     96% 0 in meteobridge W/m2
22:20 68.7 °F 67.5 °F 30.11 in Calm     96% 0 in meteobridge W/m2
22:25 68.7 °F 67.5 °F 30.11 in Calm     96% 0 in meteobridge W/m2
22:30 68.7 °F 67.5 °F 30.11 in Calm     96% 0 in meteobridge W/m2
22:35 68.7 °F 67.5 °F 30.11 in Calm   1 mph 96% 0 in meteobridge W/m2
22:40 68.5 °F 67.3 °F 30.11 in Calm     96% 0 in meteobridge W/m2
22:45 68.5 °F 67.1 °F 30.11 in Calm     95% 0 in meteobridge W/m2
22:50 68.5 °F 67.3 °F 30.11 in Calm     96% 0 in meteobridge W/m2
22:55 68.5 °F 67.3 °F 30.12 in Calm     96% 0 in meteobridge W/m2
23:00 68.4 °F 67.1 °F 30.11 in Calm     96% 0 in meteobridge W/m2
23:05 68.4 °F 67.1 °F 30.11 in Calm     96% 0 in meteobridge W/m2
23:10 68.4 °F 67.1 °F 30.11 in Calm     96% 0 in meteobridge W/m2
23:15 68.4 °F 66.9 °F 30.11 in Calm     95% 0 in meteobridge W/m2
23:20 68.4 °F 66.9 °F 30.11 in Calm     95% 0 in meteobridge W/m2
23:25 68.2 °F 66.7 °F 30.12 in Calm     95% 0 in meteobridge W/m2
23:30 68.2 °F 66.7 °F 30.12 in Calm     95% 0 in meteobridge W/m2
23:35 68.2 °F 66.7 °F 30.11 in Calm     95% 0 in meteobridge W/m2
23:40 67.8 °F 66.4 °F 30.11 in Calm     95% 0 in meteobridge W/m2
23:45 67.8 °F 66.4 °F 30.12 in Calm     95% 0 in meteobridge W/m2
23:50 67.8 °F 66.4 °F 30.12 in Calm     95% 0 in meteobridge W/m2
23:55 67.8 °F 66.4 °F 30.11 in Calm     95% 0 in meteobridge W/m2
EllijayWeather
Compliments of Weather Underground - 2.5 mb